Time,TemperatureF,DewpointF,PressureIn,WindDirection,WindDirectionDegrees,WindSpeedMPH,WindSpeedGustMPH,Humidity,HourlyPrecipIn,Conditions,Clouds,dailyrainin,SolarRadiationWatts/m^2,SoftwareType,DateUTC
2017-12-16 00:00:00,47.8,42.6,29.96,NW,320,0.0,0.0,82,0.00,,,0.00,0,WeatherCatV3.00B1958,2017-12-16 08:00:00,
2017-12-16 00:05:00,47.9,43.0,29.96,NW,321,0.0,0.0,83,0.00,,,0.00,0,WeatherCatV3.00B1958,2017-12-16 08:05:00,
2017-12-16 00:07:00,47.9,43.0,29.95,NW,321,0.0,0.0,83,0.00,,,0.00,0,WeatherCatV3.00B1958,2017-12-16 08:07:00,
2017-12-16 00:12:00,48.1,43.2,29.95,NW,320,0.0,0.0,83,0.00,,,0.00,0,WeatherCatV3.00B1958,2017-12-16 08:12:00,
2017-12-16 00:17:00,48.1,43.2,29.95,NW,321,0.0,0.0,83,0.00,,,0.00,0,WeatherCatV3.00B1958,2017-12-16 08:17:00,
2017-12-16 00:22:00,47.1,42.2,29.94,NW,320,0.0,0.0,83,0.00,,,0.00,0,WeatherCatV3.00B1958,2017-12-16 08:22:00,
2017-12-16 00:27:00,47.0,42.4,29.95,NW,320,0.0,0.0,84,0.00,,,0.00,0,WeatherCatV3.00B1958,2017-12-16 08:27:00,
2017-12-16 00:28:00,47.0,42.4,29.95,NW,320,0.0,0.0,84,0.00,,,0.00,0,WeatherCatV3.00B1958,2017-12-16 08:28:00,
2017-12-16 00:32:00,47.0,42.4,29.94,NW,320,0.0,0.0,84,0.00,,,0.00,0,WeatherCatV3.00B1958,2017-12-16 08:32:00,
2017-12-16 00:34:00,47.1,42.5,29.94,NW,320,0.0,0.0,84,0.00,,,0.00,0,WeatherCatV3.00B1958,2017-12-16 08:34:00,
2017-12-16 00:39:00,47.7,43.1,29.94,NW,320,0.0,0.0,84,0.00,,,0.00,0,WeatherCatV3.00B1958,2017-12-16 08:39:00,
2017-12-16 00:42:00,47.8,43.2,29.94,NW,321,0.0,1.0,84,0.00,,,0.00,0,WeatherCatV3.00B1958,2017-12-16 08:42:00,
2017-12-16 00:43:00,47.8,43.2,29.94,NW,320,0.0,0.0,84,0.00,,,0.00,0,WeatherCatV3.00B1958,2017-12-16 08:43:00,
2017-12-16 00:47:00,48.1,43.5,29.94,NW,320,0.0,0.0,84,0.00,,,0.00,0,WeatherCatV3.00B1958,2017-12-16 08:47:00,
2017-12-16 00:52:00,48.5,43.6,29.94,NW,321,0.0,2.0,83,0.00,,,0.00,0,WeatherCatV3.00B1958,2017-12-16 08:52:00,
2017-12-16 00:53:00,48.5,43.9,29.94,NW,311,4.0,4.0,84,0.00,,,0.00,0,WeatherCatV3.00B1958,2017-12-16 08:53:00,
2017-12-16 00:58:00,48.7,43.8,29.94,NW,313,0.0,3.0,83,0.00,,,0.00,0,WeatherCatV3.00B1958,2017-12-16 08:58:00,
2017-12-16 01:02:00,48.7,44.1,29.94,NW,313,2.0,4.0,84,0.00,,,0.00,0,WeatherCatV3.00B1958,2017-12-16 09:02:00,
2017-12-16 01:04:00,48.8,44.2,29.94,NW,314,0.0,2.0,84,0.00,,,0.00,0,WeatherCatV3.00B1958,2017-12-16 09:04:00,
2017-12-16 01:09:00,49.0,44.1,29.94,NW,314,0.0,0.0,83,0.00,,,0.00,0,WeatherCatV3.00B1958,2017-12-16 09:09:00,
2017-12-16 01:10:00,49.0,44.1,29.94,NW,314,0.0,0.0,83,0.00,,,0.00,0,WeatherCatV3.00B1958,2017-12-16 09:10:00,
2017-12-16 01:15:00,49.2,44.3,29.94,NW,314,0.0,0.0,83,0.00,,,0.00,0,WeatherCatV3.00B1958,2017-12-16 09:15:00,
2017-12-16 01:20:00,49.2,44.3,29.94,NW,314,0.0,0.0,83,0.00,,,0.00,0,WeatherCatV3.00B1958,2017-12-16 09:20:00,
2017-12-16 01:21:00,49.2,44.3,29.94,NW,314,0.0,0.0,83,0.00,,,0.00,0,WeatherCatV3.00B1958,2017-12-16 09:21:00,
2017-12-16 01:23:00,49.2,44.3,29.94,NW,314,0.0,0.0,83,0.00,,,0.00,0,WeatherCatV3.00B1958,2017-12-16 09:23:00,
2017-12-16 01:26:00,49.1,44.2,29.94,NW,314,0.0,0.0,83,0.00,,,0.00,0,WeatherCatV3.00B1958,2017-12-16 09:26:00,
2017-12-16 01:31:00,49.0,44.1,29.93,NW,314,0.0,0.0,83,0.00,,,0.00,0,WeatherCatV3.00B1958,2017-12-16 09:31:00,
2017-12-16 01:36:00,49.0,44.4,29.93,NW,314,0.0,0.0,84,0.00,,,0.00,0,WeatherCatV3.00B1958,2017-12-16 09:36:00,
2017-12-16 01:38:00,48.9,44.3,29.93,NW,314,0.0,0.0,84,0.00,,,0.00,0,WeatherCatV3.00B1958,2017-12-16 09:38:00,
2017-12-16 01:43:00,48.9,44.3,29.93,NW,314,0.0,3.0,84,0.00,,,0.00,0,WeatherCatV3.00B1958,2017-12-16 09:43:00,
2017-12-16 01:48:00,48.9,44.6,29.93,NW,314,0.0,3.0,85,0.00,,,0.00,0,WeatherCatV3.00B1958,2017-12-16 09:48:00,
2017-12-16 01:53:00,49.0,44.7,29.93,NNW,330,0.0,0.0,85,0.00,,,0.00,0,WeatherCatV3.00B1958,2017-12-16 09:53:00,
2017-12-16 01:55:00,48.9,44.6,29.93,NNW,330,0.0,0.0,85,0.00,,,0.00,0,WeatherCatV3.00B1958,2017-12-16 09:55:00,
2017-12-16 02:00:00,48.5,44.2,29.93,NNW,330,0.0,2.0,85,0.00,,,0.00,0,WeatherCatV3.00B1958,2017-12-16 10:00:00,
2017-12-16 02:02:00,48.4,44.1,29.92,NNW,330,0.0,3.0,85,0.00,,,0.00,0,WeatherCatV3.00B1958,2017-12-16 10:02:00,
2017-12-16 02:03:00,48.5,44.2,29.92,NNW,330,0.0,3.0,85,0.00,,,0.00,0,WeatherCatV3.00B1958,2017-12-16 10:03:00,
2017-12-16 02:07:00,48.5,43.9,29.93,NNW,329,0.0,1.0,84,0.00,,,0.00,0,WeatherCatV3.00B1958,2017-12-16 10:07:00,
2017-12-16 02:12:00,48.4,43.8,29.93,NNW,330,0.0,0.0,84,0.00,,,0.00,0,WeatherCatV3.00B1958,2017-12-16 10:12:00,
2017-12-16 02:13:00,48.4,43.8,29.93,NNW,331,1.0,4.0,84,0.00,,,0.00,0,WeatherCatV3.00B1958,2017-12-16 10:13:00,
2017-12-16 02:18:00,48.6,43.7,29.93,West,263,0.0,2.0,83,0.00,,,0.00,0,WeatherCatV3.00B1958,2017-12-16 10:18:00,
2017-12-16 02:19:00,48.6,43.7,29.93,West,263,0.0,2.0,83,0.00,,,0.00,0,WeatherCatV3.00B1958,2017-12-16 10:19:00,
2017-12-16 02:20:00,48.6,43.7,29.93,West,263,0.0,0.0,83,0.00,,,0.00,0,WeatherCatV3.00B1958,2017-12-16 10:20:00,
2017-12-16 02:25:00,48.5,43.6,29.93,NW,311,0.0,0.0,83,0.00,,,0.00,0,WeatherCatV3.00B1958,2017-12-16 10:25:00,
2017-12-16 02:27:00,48.4,43.2,29.93,NW,311,0.0,0.0,82,0.00,,,0.00,0,WeatherCatV3.00B1958,2017-12-16 10:27:00,
2017-12-16 02:32:00,48.3,43.1,29.92,WNW,298,0.0,0.0,82,0.00,,,0.00,0,WeatherCatV3.00B1958,2017-12-16 10:32:00,
2017-12-16 02:36:00,48.2,43.0,29.92,NNW,327,0.0,0.0,82,0.00,,,0.00,0,WeatherCatV3.00B1958,2017-12-16 10:36:00,
2017-12-16 02:41:00,48.4,42.8,29.92,NW,323,0.0,1.0,81,0.00,,,0.00,0,WeatherCatV3.00B1958,2017-12-16 10:41:00,
2017-12-16 02:46:00,48.6,42.7,29.92,WNW,303,0.0,1.0,80,0.00,,,0.00,0,WeatherCatV3.00B1958,2017-12-16 10:46:00,
2017-12-16 02:47:00,48.6,42.7,29.92,NW,304,0.0,1.0,80,0.00,,,0.00,0,WeatherCatV3.00B1958,2017-12-16 10:47:00,
2017-12-16 02:51:00,49.0,42.4,29.92,WSW,252,0.0,3.0,78,0.00,,,0.00,0,WeatherCatV3.00B1958,2017-12-16 10:51:00,
2017-12-16 02:52:00,49.0,42.1,29.92,SW,225,0.0,2.0,77,0.00,,,0.00,0,WeatherCatV3.00B1958,2017-12-16 10:52:00,
2017-12-16 02:57:00,48.8,42.2,29.92,SSE,159,0.0,4.0,78,0.00,,,0.00,0,WeatherCatV3.00B1958,2017-12-16 10:57:00,
2017-12-16 02:59:00,48.8,41.9,29.92,SSW,205,0.0,4.0,77,0.00,,,0.00,0,WeatherCatV3.00B1958,2017-12-16 10:59:00,
2017-12-16 03:04:00,48.9,42.0,29.92,South,188,0.0,0.0,77,0.00,,,0.00,0,WeatherCatV3.00B1958,2017-12-16 11:04:00,
2017-12-16 03:05:00,48.8,41.6,29.92,South,189,0.0,1.0,76,0.00,,,0.00,0,WeatherCatV3.00B1958,2017-12-16 11:05:00,
2017-12-16 03:09:00,49.1,41.5,29.92,South,189,0.0,0.0,75,0.00,,,0.00,0,WeatherCatV3.00B1958,2017-12-16 11:09:00,
2017-12-16 03:10:00,49.1,41.5,29.92,South,189,0.0,0.0,75,0.00,,,0.00,0,WeatherCatV3.00B1958,2017-12-16 11:10:00,
2017-12-16 03:11:00,49.1,41.5,29.92,South,189,0.0,1.0,75,0.00,,,0.00,0,WeatherCatV3.00B1958,2017-12-16 11:11:00,
2017-12-16 03:16:00,48.8,41.2,29.92,SSW,199,0.0,0.0,75,0.00,,,0.00,0,WeatherCatV3.00B1958,2017-12-16 11:16:00,
2017-12-16 03:21:00,48.6,41.0,29.92,SSE,161,0.0,2.0,75,0.00,,,0.00,0,WeatherCatV3.00B1958,2017-12-16 11:21:00,
2017-12-16 03:23:00,48.5,41.3,29.93,SW,232,0.0,2.0,76,0.00,,,0.00,0,WeatherCatV3.00B1958,2017-12-16 11:23:00,
2017-12-16 03:24:00,48.4,41.2,29.93,SW,232,0.0,2.0,76,0.00,,,0.00,0,WeatherCatV3.00B1958,2017-12-16 11:24:00,
2017-12-16 03:29:00,48.3,40.8,29.92,WNW,296,2.0,4.0,75,0.00,,,0.00,0,WeatherCatV3.00B1958,2017-12-16 11:29:00,
2017-12-16 03:34:00,48.3,41.1,29.93,WSW,257,0.0,0.0,76,0.00,,,0.00,0,WeatherCatV3.00B1958,2017-12-16 11:34:00,
2017-12-16 03:35:00,48.2,40.7,29.93,WNW,288,0.0,3.0,75,0.00,,,0.00,0,WeatherCatV3.00B1958,2017-12-16 11:35:00,
2017-12-16 03:40:00,48.1,40.6,29.92,WNW,282,0.0,6.0,75,0.00,,,0.00,0,WeatherCatV3.00B1958,2017-12-16 11:40:00,
2017-12-16 03:41:00,48.0,40.5,29.92,WNW,282,0.0,6.0,75,0.00,,,0.00,0,WeatherCatV3.00B1958,2017-12-16 11:41:00,
2017-12-16 03:46:00,47.9,40.4,29.92,SSE,161,0.0,0.0,75,0.00,,,0.00,0,WeatherCatV3.00B1958,2017-12-16 11:46:00,
2017-12-16 03:47:00,47.8,40.3,29.92,NW,322,4.0,4.0,75,0.00,,,0.00,0,WeatherCatV3.00B1958,2017-12-16 11:47:00,
2017-12-16 03:48:00,47.6,40.1,29.92,NW,321,0.0,4.0,75,0.00,,,0.00,0,WeatherCatV3.00B1958,2017-12-16 11:48:00,
2017-12-16 03:53:00,47.3,40.1,29.92,NNW,334,0.0,0.0,76,0.00,,,0.00,0,WeatherCatV3.00B1958,2017-12-16 11:53:00,
2017-12-16 03:57:00,47.2,40.0,29.92,NW,313,0.0,0.0,76,0.00,,,0.00,0,WeatherCatV3.00B1958,2017-12-16 11:57:00,
2017-12-16 04:02:00,47.2,40.4,29.91,North,5,0.0,12.0,77,0.00,,,0.00,0,WeatherCatV3.00B1958,2017-12-16 12:02:00,
2017-12-16 04:05:00,47.2,40.0,29.91,North,0,0.0,0.0,76,0.00,,,0.00,0,WeatherCatV3.00B1958,2017-12-16 12:05:00,
2017-12-16 04:10:00,47.1,39.9,29.92,NNW,331,0.0,0.0,76,0.00,,,0.00,0,WeatherCatV3.00B1958,2017-12-16 12:10:00,
2017-12-16 04:15:00,46.8,39.6,29.92,NNW,335,0.0,4.0,76,0.00,,,0.00,0,WeatherCatV3.00B1958,2017-12-16 12:15:00,
2017-12-16 04:16:00,46.7,39.9,29.92,NNW,335,0.0,4.0,77,0.00,,,0.00,0,WeatherCatV3.00B1958,2017-12-16 12:16:00,
2017-12-16 04:18:00,46.6,39.8,29.91,NNW,329,0.0,1.0,77,0.00,,,0.00,0,WeatherCatV3.00B1958,2017-12-16 12:18:00,
2017-12-16 04:21:00,46.7,39.9,29.91,NNW,329,0.0,0.0,77,0.00,,,0.00,0,WeatherCatV3.00B1958,2017-12-16 12:21:00,
2017-12-16 04:23:00,46.8,40.0,29.91,NNW,329,0.0,0.0,77,0.00,,,0.00,0,WeatherCatV3.00B1958,2017-12-16 12:23:00,
2017-12-16 04:28:00,46.8,40.0,29.91,NW,313,0.0,0.0,77,0.00,,,0.00,0,WeatherCatV3.00B1958,2017-12-16 12:28:00,
2017-12-16 04:32:00,46.7,39.9,29.91,NW,308,0.0,0.0,77,0.00,,,0.00,0,WeatherCatV3.00B1958,2017-12-16 12:32:00,
2017-12-16 04:34:00,46.7,39.9,29.91,NNW,342,0.0,2.0,77,0.00,,,0.00,0,WeatherCatV3.00B1958,2017-12-16 12:34:00,
2017-12-16 04:39:00,46.6,39.8,29.91,SSW,192,0.0,5.0,77,0.00,,,0.00,0,WeatherCatV3.00B1958,2017-12-16 12:39:00,
2017-12-16 04:42:00,46.7,39.5,29.91,South,184,0.0,2.0,76,0.00,,,0.00,0,WeatherCatV3.00B1958,2017-12-16 12:42:00,
2017-12-16 04:43:00,46.9,39.7,29.91,South,185,0.0,0.0,76,0.00,,,0.00,0,WeatherCatV3.00B1958,2017-12-16 12:43:00,
2017-12-16 04:48:00,47.0,39.5,29.91,SSW,201,0.0,3.0,75,0.00,,,0.00,0,WeatherCatV3.00B1958,2017-12-16 12:48:00,
2017-12-16 04:49:00,47.0,39.5,29.91,SSW,201,0.0,0.0,75,0.00,,,0.00,0,WeatherCatV3.00B1958,2017-12-16 12:49:00,
2017-12-16 04:50:00,47.0,39.5,29.91,SSW,201,0.0,0.0,75,0.00,,,0.00,0,WeatherCatV3.00B1958,2017-12-16 12:50:00,
2017-12-16 04:55:00,47.0,39.5,29.90,East,80,0.0,1.0,75,0.00,,,0.00,0,WeatherCatV3.00B1958,2017-12-16 12:55:00,
2017-12-16 04:56:00,47.0,39.5,29.90,East,80,0.0,1.0,75,0.00,,,0.00,0,WeatherCatV3.00B1958,2017-12-16 12:56:00,
2017-12-16 05:00:00,47.0,39.5,29.91,NE,34,0.0,4.0,75,0.00,,,0.00,0,WeatherCatV3.00B1958,2017-12-16 13:00:00,
2017-12-16 05:05:00,47.0,39.5,29.90,NNE,31,0.0,0.0,75,0.00,,,0.00,0,WeatherCatV3.00B1958,2017-12-16 13:05:00,
2017-12-16 05:08:00,46.9,39.4,29.90,NNE,31,0.0,0.0,75,0.00,,,0.00,0,WeatherCatV3.00B1958,2017-12-16 13:08:00,
2017-12-16 05:13:00,46.4,39.6,29.90,NNE,32,0.0,0.0,77,0.00,,,0.00,0,WeatherCatV3.00B1958,2017-12-16 13:13:00,
2017-12-16 05:18:00,46.0,39.2,29.90,SSE,157,0.0,3.0,77,0.00,,,0.00,0,WeatherCatV3.00B1958,2017-12-16 13:18:00,
2017-12-16 05:21:00,46.1,39.3,29.90,NNW,342,0.0,0.0,77,0.00,,,0.00,0,WeatherCatV3.00B1958,2017-12-16 13:21:00,
2017-12-16 05:26:00,46.3,38.8,29.90,NW,325,0.0,3.0,75,0.00,,,0.00,0,WeatherCatV3.00B1958,2017-12-16 13:26:00,
2017-12-16 05:28:00,46.5,38.7,29.90,SSW,195,1.0,2.0,74,0.00,,,0.00,0,WeatherCatV3.00B1958,2017-12-16 13:28:00,
2017-12-16 05:32:00,46.5,38.3,29.89,NW,311,0.0,7.0,73,0.00,,,0.00,0,WeatherCatV3.00B1958,2017-12-16 13:32:00,
2017-12-16 05:37:00,46.7,38.2,29.90,South,187,0.0,1.0,72,0.00,,,0.00,0,WeatherCatV3.00B1958,2017-12-16 13:37:00,
2017-12-16 05:38:00,46.7,37.8,29.89,South,187,0.0,1.0,71,0.00,,,0.00,0,WeatherCatV3.00B1958,2017-12-16 13:38:00,
2017-12-16 05:42:00,46.7,37.8,29.89,South,180,0.0,2.0,71,0.00,,,0.00,0,WeatherCatV3.00B1958,2017-12-16 13:42:00,
2017-12-16 05:43:00,46.7,37.4,29.89,South,180,0.0,0.0,70,0.00,,,0.00,0,WeatherCatV3.00B1958,2017-12-16 13:43:00,
2017-12-16 05:49:00,46.7,37.1,29.89,South,169,2.0,4.0,69,0.00,,,0.00,0,WeatherCatV3.00B1958,2017-12-16 13:49:00,
2017-12-16 05:52:00,46.7,36.3,29.89,NE,38,2.0,4.0,67,0.00,,,0.00,0,WeatherCatV3.00B1958,2017-12-16 13:52:00,
2017-12-16 05:57:00,47.3,35.8,29.90,WNW,292,0.0,3.0,64,0.00,,,0.00,0,WeatherCatV3.00B1958,2017-12-16 13:57:00,
2017-12-16 05:59:00,47.6,35.6,29.89,NNW,331,0.0,5.0,63,0.00,,,0.00,0,WeatherCatV3.00B1958,2017-12-16 13:59:00,
2017-12-16 06:04:00,48.1,35.3,29.90,NNW,330,0.0,4.0,61,0.00,,,0.00,0,WeatherCatV3.00B1958,2017-12-16 14:04:00,
2017-12-16 06:06:00,48.2,35.0,29.90,NNW,330,0.0,0.0,60,0.00,,,0.00,0,WeatherCatV3.00B1958,2017-12-16 14:06:00,
2017-12-16 06:08:00,48.5,34.8,29.90,North,5,0.0,2.0,59,0.00,,,0.00,0,WeatherCatV3.00B1958,2017-12-16 14:08:00,
2017-12-16 06:11:00,48.4,35.2,29.90,NW,315,0.0,3.0,60,0.00,,,0.00,0,WeatherCatV3.00B1958,2017-12-16 14:11:00,
2017-12-16 06:16:00,48.6,34.1,29.90,NW,326,5.0,7.0,57,0.00,,,0.00,0,WeatherCatV3.00B1958,2017-12-16 14:16:00,
2017-12-16 06:17:00,48.6,33.6,29.90,SSW,201,2.0,6.0,56,0.00,,,0.00,0,WeatherCatV3.00B1958,2017-12-16 14:17:00,
2017-12-16 06:22:00,49.1,32.7,29.89,NE,44,0.0,6.0,53,0.00,,,0.00,0,WeatherCatV3.00B1958,2017-12-16 14:22:00,
2017-12-16 06:27:00,49.1,33.2,29.89,WSW,253,0.0,3.0,54,0.00,,,0.00,0,WeatherCatV3.00B1958,2017-12-16 14:27:00,
2017-12-16 06:30:00,49.4,33.5,29.89,SW,227,0.0,0.0,54,0.00,,,0.00,0,WeatherCatV3.00B1958,2017-12-16 14:30:00,
2017-12-16 06:33:00,49.1,33.2,29.89,West,262,0.0,2.0,54,0.00,,,0.00,0,WeatherCatV3.00B1958,2017-12-16 14:33:00,
2017-12-16 06:38:00,48.9,33.5,29.89,SW,234,0.0,2.0,55,0.00,,,0.00,0,WeatherCatV3.00B1958,2017-12-16 14:38:00,
2017-12-16 06:40:00,48.7,33.3,29.89,South,183,0.0,2.0,55,0.00,,,0.00,0,WeatherCatV3.00B1958,2017-12-16 14:40:00,
2017-12-16 06:41:00,48.6,33.6,29.89,South,183,0.0,0.0,56,0.00,,,0.00,0,WeatherCatV3.00B1958,2017-12-16 14:41:00,
2017-12-16 06:46:00,48.3,33.3,29.89,South,183,2.0,2.0,56,0.00,,,0.00,0,WeatherCatV3.00B1958,2017-12-16 14:46:00,
2017-12-16 06:51:00,48.3,32.9,29.89,SSW,206,4.0,4.0,55,0.00,,,0.00,0,WeatherCatV3.00B1958,2017-12-16 14:51:00,
2017-12-16 06:52:00,48.3,32.9,29.89,SSW,202,0.0,5.0,55,0.00,,,0.00,0,WeatherCatV3.00B1958,2017-12-16 14:52:00,
2017-12-16 06:54:00,48.3,32.9,29.90,SSW,197,0.0,1.0,55,0.00,,,0.00,0,WeatherCatV3.00B1958,2017-12-16 14:54:00,
2017-12-16 06:59:00,48.4,33.0,29.89,SE,137,0.0,2.0,55,0.00,,,0.00,0,WeatherCatV3.00B1958,2017-12-16 14:59:00,
2017-12-16 07:00:00,48.3,32.9,29.89,SSE,150,1.0,2.0,55,0.00,,,0.00,0,WeatherCatV3.00B1958,2017-12-16 15:00:00,
2017-12-16 07:02:00,48.2,32.8,29.90,North,355,1.0,3.0,55,0.00,,,0.00,0,WeatherCatV3.00B1958,2017-12-16 15:02:00,
2017-12-16 07:07:00,48.4,31.1,29.89,North,10,0.0,7.0,51,0.00,,,0.00,0,WeatherCatV3.00B1958,2017-12-16 15:07:00,
2017-12-16 07:12:00,48.9,31.1,29.89,SW,232,0.0,2.0,50,0.00,,,0.00,0,WeatherCatV3.00B1958,2017-12-16 15:12:00,
2017-12-16 07:16:00,48.8,31.5,29.89,South,189,0.0,0.0,51,0.00,,,0.00,0,WeatherCatV3.00B1958,2017-12-16 15:16:00,
2017-12-16 07:18:00,48.8,32.0,29.89,South,189,0.0,2.0,52,0.00,,,0.00,0,WeatherCatV3.00B1958,2017-12-16 15:18:00,
2017-12-16 07:23:00,48.4,31.1,29.89,South,180,0.0,1.0,51,0.00,,,0.00,0,WeatherCatV3.00B1958,2017-12-16 15:23:00,
2017-12-16 07:28:00,48.5,31.7,29.89,South,180,0.0,0.0,52,0.00,,,0.00,5,WeatherCatV3.00B1958,2017-12-16 15:28:00,
2017-12-16 07:29:00,48.5,31.2,29.89,South,180,0.0,0.0,51,0.00,,,0.00,5,WeatherCatV3.00B1958,2017-12-16 15:29:00,
2017-12-16 07:34:00,48.4,30.6,29.90,East,88,0.0,2.0,50,0.00,,,0.00,9,WeatherCatV3.00B1958,2017-12-16 15:34:00,
2017-12-16 07:35:00,48.4,31.1,29.90,ESE,102,1.0,2.0,51,0.00,,,0.00,11,WeatherCatV3.00B1958,2017-12-16 15:35:00,
2017-12-16 07:40:00,48.3,31.5,29.90,SSW,200,0.0,0.0,52,0.00,,,0.00,12,WeatherCatV3.00B1958,2017-12-16 15:40:00,
2017-12-16 07:42:00,48.3,31.5,29.90,SSW,200,0.0,0.0,52,0.00,,,0.00,12,WeatherCatV3.00B1958,2017-12-16 15:42:00,
2017-12-16 07:47:00,48.2,31.9,29.90,South,171,0.0,0.0,53,0.00,,,0.00,14,WeatherCatV3.00B1958,2017-12-16 15:47:00,
2017-12-16 07:50:00,48.2,31.4,29.90,SE,132,0.0,3.0,52,0.00,,,0.00,14,WeatherCatV3.00B1958,2017-12-16 15:50:00,
2017-12-16 07:52:00,48.3,31.0,29.90,SE,131,0.0,0.0,51,0.00,,,0.00,14,WeatherCatV3.00B1958,2017-12-16 15:52:00,
2017-12-16 07:56:00,48.7,30.9,29.90,NW,304,0.0,0.0,50,0.00,,,0.00,16,WeatherCatV3.00B1958,2017-12-16 15:56:00,
2017-12-16 07:57:00,48.7,30.9,29.90,NW,304,0.0,0.0,50,0.00,,,0.00,16,WeatherCatV3.00B1958,2017-12-16 15:57:00,
2017-12-16 08:00:00,49.0,31.2,29.90,NW,317,0.0,0.0,50,0.00,,,0.00,18,WeatherCatV3.00B1958,2017-12-16 16:00:00,
2017-12-16 08:02:00,49.2,30.9,29.90,NW,315,0.0,1.0,49,0.00,,,0.00,18,WeatherCatV3.00B1958,2017-12-16 16:02:00,
2017-12-16 08:07:00,49.4,31.0,29.90,NW,317,3.0,5.0,49,0.00,,,0.00,18,WeatherCatV3.00B1958,2017-12-16 16:07:00,
2017-12-16 08:08:00,49.5,30.6,29.90,NW,321,0.0,5.0,48,0.00,,,0.00,19,WeatherCatV3.00B1958,2017-12-16 16:08:00,
2017-12-16 08:13:00,49.7,30.8,29.91,NNE,28,0.0,1.0,48,0.00,,,0.00,19,WeatherCatV3.00B1958,2017-12-16 16:13:00,
2017-12-16 08:14:00,49.7,30.3,29.91,NE,38,0.0,2.0,47,0.00,,,0.00,19,WeatherCatV3.00B1958,2017-12-16 16:14:00,